createdAt,value
2023-04-08T00:00:35.480Z,5.44
2023-04-08T00:03:22.659Z,5.36
2023-04-08T00:06:09.727Z,4.93
2023-04-08T00:08:55.620Z,5.10
2023-04-08T00:11:44.817Z,4.71
2023-04-08T00:14:30.741Z,5.14
2023-04-08T00:17:17.063Z,4.91
2023-04-08T00:20:05.083Z,5.33
2023-04-08T00:22:51.634Z,5.20
2023-04-08T00:25:37.792Z,5.04
2023-04-08T00:28:24.374Z,5.00
2023-04-08T00:31:10.790Z,5.08
2023-04-08T00:33:56.925Z,5.23
2023-04-08T00:36:43.184Z,5.25
2023-04-08T00:39:29.566Z,5.21
2023-04-08T00:42:15.094Z,5.08
2023-04-08T00:45:01.960Z,4.64
2023-04-08T00:47:52.976Z,5.13
2023-04-08T00:50:39.515Z,4.49
2023-04-08T00:53:25.847Z,4.90
2023-04-08T00:56:12.152Z,5.13
2023-04-08T00:59:00.928Z,4.62
2023-04-08T01:02:02.065Z,5.11
2023-04-08T01:05:09.720Z,5.13
2023-04-08T01:07:56.598Z,4.94
2023-04-08T01:10:46.023Z,4.77
2023-04-08T01:13:36.225Z,4.71
2023-04-08T01:16:23.056Z,4.41
2023-04-08T01:19:10.958Z,4.51
2023-04-08T01:22:23.548Z,4.70
2023-04-08T01:25:39.404Z,4.86
2023-04-08T01:28:27.553Z,4.41
2023-04-08T01:31:13.916Z,4.84
2023-04-08T01:34:01.391Z,4.26
2023-04-08T01:36:48.087Z,4.20
2023-04-08T01:39:35.482Z,4.54
2023-04-08T01:42:27.998Z,4.20
2023-04-08T01:45:14.804Z,4.28
2023-04-08T01:48:01.829Z,4.33
2023-04-08T01:50:48.410Z,4.50
2023-04-08T01:53:34.557Z,4.42
2023-04-08T01:56:22.680Z,4.09
2023-04-08T01:59:12.526Z,4.47
2023-04-08T02:02:01.033Z,4.02
2023-04-08T02:04:48.398Z,4.37
2023-04-08T02:07:34.271Z,4.30
2023-04-08T02:10:20.390Z,4.48
2023-04-08T02:13:06.877Z,4.58
2023-04-08T02:15:58.075Z,4.47
2023-04-08T02:18:46.491Z,4.88
2023-04-08T02:21:41.496Z,5.17
2023-04-08T02:24:28.581Z,5.37
2023-04-08T02:27:16.033Z,5.15
2023-04-08T02:30:07.322Z,5.04
2023-04-08T02:32:54.697Z,5.46
2023-04-08T02:35:41.945Z,5.42
2023-04-08T02:38:30.842Z,5.79
2023-04-08T02:41:16.864Z,5.60
2023-04-08T02:44:03.113Z,5.39
2023-04-08T02:46:49.988Z,5.63
2023-04-08T02:49:36.839Z,5.03
2023-04-08T02:52:22.843Z,5.84
2023-04-08T02:55:10.121Z,5.85
2023-04-08T02:57:56.102Z,6.25
2023-04-08T03:00:43.144Z,6.24
2023-04-08T03:03:31.595Z,6.31
2023-04-08T03:06:19.206Z,6.19
2023-04-08T03:09:06.090Z,5.83
2023-04-08T03:11:55.075Z,6.13
2023-04-08T03:14:41.216Z,6.44
2023-04-08T03:17:27.767Z,6.55
2023-04-08T03:20:13.519Z,6.44
2023-04-08T03:23:01.181Z,6.42
2023-04-08T03:25:47.615Z,6.81
2023-04-08T03:28:33.811Z,6.90
2023-04-08T03:31:21.396Z,6.87
2023-04-08T03:34:08.061Z,6.70
2023-04-08T03:36:54.190Z,6.48
2023-04-08T03:39:40.116Z,6.85
2023-04-08T03:42:26.033Z,7.02
2023-04-08T03:45:12.262Z,6.61
2023-04-08T03:47:58.454Z,6.91
2023-04-08T03:50:45.125Z,6.46
2023-04-08T03:53:31.029Z,6.51
2023-04-08T03:56:17.719Z,6.24
2023-04-08T03:59:03.653Z,6.05
2023-04-08T04:01:51.543Z,5.90
2023-04-08T04:04:38.211Z,5.31
2023-04-08T04:07:25.140Z,5.37
2023-04-08T04:10:11.101Z,5.09
2023-04-08T04:12:57.572Z,5.44
2023-04-08T04:15:43.280Z,5.33
2023-04-08T04:18:29.414Z,5.00
2023-04-08T04:21:18.176Z,4.61
2023-04-08T04:24:05.479Z,4.76
2023-04-08T04:26:51.149Z,4.49
2023-04-08T04:29:37.491Z,4.44
2023-04-08T04:32:23.786Z,4.67
2023-04-08T04:35:11.442Z,4.78
2023-04-08T04:37:57.671Z,5.30
2023-04-08T04:40:44.605Z,5.05
2023-04-08T04:43:30.512Z,4.89
2023-04-08T04:46:16.962Z,5.19
2023-04-08T04:49:03.183Z,4.90
2023-04-08T04:51:49.467Z,4.72
2023-04-08T04:54:35.753Z,5.15
2023-04-08T04:57:22.841Z,5.21
2023-04-08T05:00:09.831Z,5.31
2023-04-08T05:02:56.862Z,4.99
2023-04-08T05:05:42.810Z,5.50
2023-04-08T05:08:29.395Z,4.97
2023-04-08T05:11:15.252Z,5.08
2023-04-08T05:14:01.685Z,5.71
2023-04-08T05:16:48.303Z,5.38
2023-04-08T05:19:34.801Z,5.75
2023-04-08T05:22:20.735Z,6.03
2023-04-08T05:25:06.982Z,5.95
2023-04-08T05:27:53.561Z,6.07
2023-04-08T05:30:39.865Z,6.25
2023-04-08T05:33:26.835Z,6.07
2023-04-08T05:36:15.678Z,6.19
2023-04-08T05:39:04.733Z,6.24
2023-04-08T05:41:53.792Z,5.57
2023-04-08T05:44:41.487Z,6.02
2023-04-08T05:47:27.893Z,5.55
2023-04-08T05:50:13.830Z,5.85
2023-04-08T05:53:00.106Z,5.59
2023-04-08T05:55:46.053Z,4.99
2023-04-08T05:58:32.979Z,5.77
2023-04-08T06:01:18.773Z,5.11
2023-04-08T06:04:05.608Z,5.33
2023-04-08T06:06:51.773Z,5.58
2023-04-08T06:09:38.742Z,5.74
2023-04-08T06:12:24.823Z,5.33
2023-04-08T06:15:11.095Z,5.68
2023-04-08T06:17:57.047Z,5.60
2023-04-08T06:20:44.000Z,5.08
2023-04-08T06:23:30.642Z,5.69
2023-04-08T06:26:17.232Z,5.82
2023-04-08T06:29:04.146Z,6.01
2023-04-08T06:31:51.305Z,5.65
2023-04-08T06:34:37.240Z,6.08
2023-04-08T06:37:23.574Z,6.07
2023-04-08T06:40:09.434Z,5.92
2023-04-08T06:42:55.908Z,5.85
2023-04-08T06:45:53.606Z,6.24
2023-04-08T06:48:40.745Z,6.29
2023-04-08T06:51:28.058Z,6.20
2023-04-08T06:54:14.617Z,5.93
2023-04-08T06:57:00.358Z,6.54
2023-04-08T06:59:47.108Z,6.48
2023-04-08T07:02:33.093Z,6.39
2023-04-08T07:05:19.834Z,5.90
2023-04-08T07:08:06.525Z,6.40
2023-04-08T07:10:53.019Z,6.19
2023-04-08T07:13:38.712Z,6.53
2023-04-08T07:16:25.652Z,6.04
2023-04-08T07:19:12.081Z,6.55
2023-04-08T07:21:58.545Z,6.51
2023-04-08T07:24:49.821Z,6.34
2023-04-08T07:27:36.741Z,6.36
2023-04-08T07:30:22.659Z,5.93
2023-04-08T07:33:09.056Z,6.13
2023-04-08T07:35:54.672Z,6.20
2023-04-08T07:38:41.018Z,5.68
2023-04-08T07:41:27.135Z,6.21
2023-04-08T07:44:17.242Z,5.99
2023-04-08T07:47:03.088Z,5.77
2023-04-08T07:49:49.160Z,5.99
2023-04-08T07:52:35.041Z,5.77
2023-04-08T07:55:21.419Z,5.96
2023-04-08T07:58:07.715Z,5.80
2023-04-08T08:00:54.034Z,5.72
2023-04-08T08:03:39.960Z,5.66
2023-04-08T08:06:27.819Z,6.03
2023-04-08T08:09:13.807Z,5.66
2023-04-08T08:12:00.127Z,5.59
2023-04-08T08:14:46.047Z,6.10
2023-04-08T08:17:34.002Z,6.02
2023-04-08T08:20:19.925Z,6.01
2023-04-08T08:23:06.458Z,5.95
2023-04-08T08:26:01.575Z,5.85
2023-04-08T08:28:47.550Z,5.90
2023-04-08T08:31:33.167Z,6.13
2023-04-08T08:34:19.430Z,6.19
2023-04-08T08:37:05.560Z,6.41
2023-04-08T08:39:51.907Z,6.32
2023-04-08T08:42:38.393Z,6.41
2023-04-08T08:45:24.993Z,7.02
2023-04-08T08:48:11.580Z,6.64
2023-04-08T08:50:58.230Z,7.23
2023-04-08T08:53:47.442Z,7.37
2023-04-08T08:56:34.597Z,7.24
2023-04-08T08:59:20.646Z,7.10
2023-04-08T09:02:24.643Z,7.12
2023-04-08T09:05:10.568Z,7.39
2023-04-08T09:07:57.516Z,7.48
2023-04-08T09:10:43.540Z,7.78
2023-04-08T09:13:36.637Z,7.46
2023-04-08T09:16:23.597Z,8.21
2023-04-08T09:19:11.228Z,8.38
2023-04-08T09:22:10.911Z,8.67
2023-04-08T09:24:58.331Z,8.74
2023-04-08T09:27:45.405Z,8.63
2023-04-08T09:30:32.614Z,8.65
2023-04-08T09:33:18.461Z,8.14
2023-04-08T09:36:05.374Z,8.79
2023-04-08T09:38:51.292Z,8.56
2023-04-08T09:41:38.710Z,9.16
2023-04-08T09:44:25.013Z,9.25
2023-04-08T09:47:20.709Z,8.79
2023-04-08T09:50:10.053Z,9.33
2023-04-08T09:53:21.009Z,9.59
2023-04-08T09:56:11.163Z,9.26
2023-04-08T09:59:05.290Z,8.95
2023-04-08T10:01:54.438Z,9.71
2023-04-08T10:04:46.191Z,9.68
2023-04-08T10:07:31.988Z,9.77
2023-04-08T10:10:18.751Z,9.83
2023-04-08T10:13:04.893Z,9.31
2023-04-08T10:15:53.153Z,9.72
2023-04-08T10:18:39.500Z,9.33
2023-04-08T10:22:01.821Z,9.67
2023-04-08T10:25:17.118Z,9.55
2023-04-08T10:28:17.847Z,9.95
2023-04-08T10:31:03.705Z,9.74
2023-04-08T10:33:50.097Z,9.71
2023-04-08T10:36:36.109Z,9.37
2023-04-08T10:39:22.890Z,9.23
2023-04-08T10:42:08.933Z,9.10
2023-04-08T10:44:55.260Z,9.26
2023-04-08T10:47:41.138Z,9.80
2023-04-08T10:50:28.189Z,9.16
2023-04-08T10:53:14.360Z,9.87
2023-04-08T10:56:13.485Z,9.68
2023-04-08T10:58:59.956Z,9.78
2023-04-08T11:01:46.869Z,9.00
2023-04-08T11:04:33.481Z,9.55
2023-04-08T11:07:21.495Z,9.12
2023-04-08T11:10:11.193Z,9.60
2023-04-08T11:12:58.543Z,8.99
2023-04-08T11:18:59.134Z,9.44
2023-04-08T11:21:46.233Z,9.39
2023-04-08T11:26:12.662Z,10.13
2023-04-08T11:29:26.471Z,9.74
2023-04-08T11:32:13.367Z,10.04
2023-04-08T11:35:06.248Z,9.58
2023-04-08T11:37:52.619Z,10.08
2023-04-08T11:40:38.658Z,9.71
2023-04-08T11:43:26.527Z,10.24
2023-04-08T11:46:13.826Z,10.13
2023-04-08T11:49:07.970Z,10.40
2023-04-08T11:52:14.369Z,9.92
2023-04-08T11:55:00.974Z,10.32
2023-04-08T11:57:46.967Z,10.14
2023-04-08T12:00:34.284Z,9.67
2023-04-08T12:03:25.057Z,10.11
2023-04-08T12:06:11.804Z,10.06
2023-04-08T12:14:18.607Z,10.17
2023-04-08T12:17:04.692Z,9.97
2023-04-08T12:20:17.396Z,10.01
2023-04-08T12:23:08.997Z,10.22
2023-04-08T12:31:24.334Z,10.54
2023-04-08T12:35:04.694Z,10.51
2023-04-08T12:37:51.151Z,10.26
2023-04-08T12:41:30.084Z,10.61
2023-04-08T12:44:16.290Z,10.23
2023-04-08T12:47:03.118Z,10.81
2023-04-08T12:51:06.192Z,11.00
2023-04-08T12:54:00.818Z,11.06
2023-04-08T12:56:53.052Z,11.04
2023-04-08T12:59:40.286Z,10.57
2023-04-08T13:02:36.253Z,10.68
2023-04-08T13:05:55.053Z,10.87
2023-04-08T13:08:42.739Z,10.55
2023-04-08T13:15:58.141Z,10.79
2023-04-08T13:19:09.456Z,10.97
2023-04-08T13:21:56.160Z,10.71
2023-04-08T13:24:42.483Z,10.94
2023-04-08T13:27:29.034Z,11.14
2023-04-08T13:30:16.223Z,10.94
2023-04-08T13:38:36.954Z,11.44
2023-04-08T13:41:28.233Z,10.96
2023-04-08T13:49:32.213Z,11.19
2023-04-08T13:52:18.481Z,10.56
2023-04-08T13:56:45.754Z,11.27
2023-04-08T13:59:34.654Z,11.00
2023-04-08T14:02:46.384Z,10.54
2023-04-08T14:05:32.954Z,11.19
2023-04-08T14:08:44.030Z,10.48
2023-04-08T14:12:01.972Z,10.96
2023-04-08T14:14:51.878Z,10.22
2023-04-08T14:18:54.908Z,10.88
2023-04-08T14:28:42.095Z,10.84
2023-04-08T14:31:28.659Z,10.52
2023-04-08T14:38:42.429Z,10.48
2023-04-08T14:41:28.435Z,10.92
2023-04-08T14:44:14.900Z,10.50
2023-04-08T14:47:00.683Z,10.93
2023-04-08T14:55:55.082Z,10.92
2023-04-08T15:00:24.681Z,10.94
2023-04-08T15:04:03.062Z,11.02
2023-04-08T15:08:32.810Z,11.05
2023-04-08T15:11:20.908Z,10.68
2023-04-08T15:14:58.342Z,11.04
2023-04-08T15:45:14.084Z,10.21
2023-04-08T15:53:51.869Z,9.77
2023-04-08T15:56:37.798Z,10.47
2023-04-08T15:59:49.204Z,10.18
2023-04-08T16:02:35.815Z,10.01
2023-04-08T16:11:18.309Z,10.44
2023-04-08T16:14:05.286Z,10.44
2023-04-08T16:17:42.996Z,10.48
2023-04-08T16:22:13.062Z,10.54
2023-04-08T16:34:47.868Z,9.71
2023-04-08T16:37:34.928Z,10.38
2023-04-08T16:40:21.915Z,10.41
2023-04-08T16:43:08.601Z,10.10
2023-04-08T16:45:54.806Z,9.88
2023-04-08T16:48:42.249Z,9.57
2023-04-08T16:51:29.349Z,10.14
2023-04-08T16:54:15.491Z,9.84
2023-04-08T16:57:01.485Z,9.71
2023-04-08T16:59:54.152Z,9.92
2023-04-08T17:02:55.940Z,9.63
2023-04-08T17:05:42.402Z,9.38
2023-04-08T17:08:29.395Z,9.72
2023-04-08T17:11:15.709Z,9.35
2023-04-08T17:14:03.928Z,9.11
2023-04-08T17:16:50.652Z,9.28
2023-04-08T17:19:39.350Z,9.24
2023-04-08T17:22:26.766Z,9.63
2023-04-08T17:25:13.579Z,9.28
2023-04-08T17:27:59.581Z,9.06
2023-04-08T17:30:45.830Z,9.01
2023-04-08T17:33:33.989Z,8.95
2023-04-08T17:36:20.334Z,8.70
2023-04-08T17:39:06.768Z,8.86
2023-04-08T17:41:53.243Z,9.01
2023-04-08T17:44:42.352Z,8.78
2023-04-08T17:47:28.682Z,9.26
2023-04-08T17:50:15.094Z,9.23
2023-04-08T17:53:01.617Z,8.46
2023-04-08T17:55:47.497Z,8.70
2023-04-08T17:58:34.502Z,8.41
2023-04-08T18:01:22.414Z,8.76
2023-04-08T18:04:10.468Z,8.81
2023-04-08T18:06:57.278Z,8.57
2023-04-08T18:09:44.548Z,8.69
2023-04-08T18:12:31.183Z,8.42
2023-04-08T18:15:18.469Z,8.35
2023-04-08T18:18:04.540Z,8.68
2023-04-08T18:20:51.890Z,8.38
2023-04-08T18:23:38.103Z,8.28
2023-04-08T18:26:25.365Z,8.86
2023-04-08T18:29:11.842Z,8.59
2023-04-08T18:31:58.130Z,8.42
2023-04-08T18:34:44.434Z,8.08
2023-04-08T18:37:31.366Z,8.48
2023-04-08T18:40:17.962Z,8.51
2023-04-08T18:43:05.273Z,8.30
2023-04-08T18:45:51.258Z,8.54
2023-04-08T18:48:38.724Z,8.65
2023-04-08T18:51:27.243Z,8.62
2023-04-08T18:54:13.369Z,8.28
2023-04-08T18:56:59.780Z,8.43
2023-04-08T18:59:48.943Z,8.24
2023-04-08T19:02:35.137Z,7.90
2023-04-08T19:05:23.190Z,7.91
2023-04-08T19:08:09.473Z,8.57
2023-04-08T19:10:55.609Z,8.61
2023-04-08T19:13:42.186Z,8.37
2023-04-08T19:16:28.380Z,8.14
2023-04-08T19:19:14.161Z,8.57
2023-04-08T19:22:02.973Z,8.46
2023-04-08T19:24:49.937Z,8.26
2023-04-08T19:27:36.110Z,8.30
2023-04-08T19:30:21.861Z,8.08
2023-04-08T19:33:08.958Z,7.84
2023-04-08T19:35:56.431Z,8.25
2023-04-08T19:38:44.428Z,7.76
2023-04-08T19:41:30.768Z,8.37
2023-04-08T19:44:18.457Z,7.89
2023-04-08T19:47:07.758Z,8.07
2023-04-08T19:49:54.409Z,8.48
2023-04-08T19:52:40.244Z,8.48
2023-04-08T19:55:26.794Z,8.12
2023-04-08T19:58:13.231Z,8.33
2023-04-08T20:01:00.299Z,7.95
2023-04-08T20:03:50.489Z,8.09
2023-04-08T20:06:37.491Z,8.47
2023-04-08T20:09:23.507Z,8.06
2023-04-08T20:12:10.073Z,8.18
2023-04-08T20:14:56.268Z,7.98
2023-04-08T20:17:43.404Z,8.40
2023-04-08T20:20:30.099Z,8.46
2023-04-08T20:23:19.441Z,8.18
2023-04-08T20:26:06.629Z,8.06
2023-04-08T20:28:54.536Z,8.44
2023-04-08T20:31:46.341Z,7.80
2023-04-08T20:34:32.520Z,7.78
2023-04-08T20:37:18.484Z,8.43
2023-04-08T20:40:05.488Z,7.72
2023-04-08T20:42:51.101Z,7.92
2023-04-08T20:45:38.154Z,7.92
2023-04-08T20:48:25.465Z,7.56
2023-04-08T20:51:12.318Z,8.35
2023-04-08T20:53:59.339Z,7.88
2023-04-08T20:56:46.481Z,7.71
2023-04-08T20:59:33.500Z,7.99
2023-04-08T21:02:21.689Z,8.03
2023-04-08T21:05:08.294Z,7.71
2023-04-08T21:07:56.259Z,7.93
2023-04-08T21:10:42.414Z,7.94
2023-04-08T21:13:28.894Z,8.11
2023-04-08T21:16:15.535Z,8.08
2023-04-08T21:19:02.224Z,7.87
2023-04-08T21:21:47.955Z,7.88
2023-04-08T21:24:34.219Z,8.02
2023-04-08T21:27:21.252Z,8.35
2023-04-08T21:30:08.089Z,8.07
2023-04-08T21:32:54.255Z,8.37
2023-04-08T21:35:41.119Z,8.33
2023-04-08T21:38:27.543Z,8.06
2023-04-08T21:41:13.698Z,8.09
2023-04-08T21:43:59.621Z,8.08
2023-04-08T21:46:49.165Z,8.01
2023-04-08T21:49:36.544Z,7.87
2023-04-08T21:52:23.299Z,7.84
2023-04-08T21:55:09.539Z,8.30
2023-04-08T21:57:55.843Z,8.19
2023-04-08T22:00:41.738Z,7.92
2023-04-08T22:03:28.456Z,8.26
2023-04-08T22:06:29.093Z,7.46
2023-04-08T22:09:17.895Z,7.97
2023-04-08T22:12:04.928Z,7.80
2023-04-08T22:14:51.148Z,8.26
2023-04-08T22:17:37.092Z,8.29
2023-04-08T22:20:23.612Z,8.10
2023-04-08T22:23:09.523Z,7.82
2023-04-08T22:25:55.486Z,7.83
2023-04-08T22:28:42.636Z,7.95
2023-04-08T22:31:28.777Z,7.54
2023-04-08T22:34:14.767Z,7.56
2023-04-08T22:37:02.127Z,8.06
2023-04-08T22:39:47.740Z,7.65
2023-04-08T22:42:34.068Z,8.34
2023-04-08T22:45:20.037Z,7.97
2023-04-08T22:48:06.590Z,7.71
2023-04-08T22:50:53.193Z,7.71
2023-04-08T22:53:39.692Z,7.81
2023-04-08T22:56:27.772Z,7.57
2023-04-08T22:59:13.611Z,8.38
2023-04-08T23:01:59.821Z,7.59
2023-04-08T23:04:46.772Z,7.47
2023-04-08T23:07:32.675Z,8.37
2023-04-08T23:10:19.336Z,8.05
2023-04-08T23:13:05.181Z,8.36
2023-04-08T23:15:51.718Z,8.24
2023-04-08T23:18:37.874Z,8.35
2023-04-08T23:21:23.925Z,7.96
2023-04-08T23:24:10.036Z,8.18
2023-04-08T23:26:56.961Z,8.21
2023-04-08T23:29:43.280Z,7.90
2023-04-08T23:32:30.443Z,7.79
2023-04-08T23:35:17.850Z,8.28
2023-04-08T23:38:04.449Z,7.82
2023-04-08T23:40:51.705Z,7.95
2023-04-08T23:43:38.015Z,7.97
2023-04-08T23:46:23.912Z,8.27
2023-04-08T23:49:10.171Z,8.21
2023-04-08T23:51:56.558Z,7.80
2023-04-08T23:54:42.885Z,8.28
2023-04-08T23:57:28.662Z,8.24
